Aérodrome :
LOGIN :

S'inscrire | Disclaimer

   EN    FR    IT 

 










Légende :    VFR   VFR Marginal   IFR   IFR Intensif   IFR Très Intensif
Visi : 
Plafond : 
>= 8 km
>= 3000ft
5 à 8 km
1000 à 3000 ft
1500m à 5 km
500 à 1000 ft
800 à 1500m
200 à 500 ft
< 800m
< 200 ft
Symboles :   Orages  Brouillard  Fortes neiges  Fortes précipitations  Vent > 20 kt
SIGMETs :   Divers  Orages  Givrage  Turbulence  Onde Orograph.  Cendres Volcan.






- Altitude de l'aérodrome : 72 ft
- Code IATA : UDE


EHVK - Volkel Airbase

DERNIER METAR :
  • 200936Z AUTO 14001KT 4800 -RA BKN058 11/11 Q1009 GRN

METARs EXPIRÉS :
  • 200914Z AUTO 15002KT 5000 -RA SCT057 11/11 Q1008 WHT
  • 200855Z AUTO 12001KT 4500 -RA FEW049 OVC057 11/11 Q1008 RERA REDZ GRN
  • 200825Z AUTO 09002KT 3300 BR FEW068 BKN073 OVC079 10/10 Q1008 YLO
  • 200809Z AUTO VRB01KT 5000 BR FEW078 OVC084 10/10 Q1008 WHT
  • 200801Z AUTO 00000KT 3300 BR BKN080 OVC085 10/10 Q1008 YLO
  • 200755Z AUTO 00000KT 4600 BR OVC076 10/10 Q1008 GRN
  • 200725Z AUTO 00000KT 4300 BR FEW076 OVC084 09/09 Q1008 GRN
  • 200715Z AUTO VRB01KT 4800 BR BKN076 OVC084 09/09 Q1008 GRN
  • 200703Z AUTO VRB02KT 1800 BR FEW000 BKN086 OVC140 07/07 Q1008 YLO

TAF TAF EHVK
Valide du 20 à 09h jusqu'au 20 à 21h UTC


200832Z 2009/2021 VRB02KT 4500 BR SCT050 BKN070
BECMG 2009/2012 04006KT 8000 NSW FEW020 BKN030
TEMPO 2010/2021 3000 RADZ SCT015 BKN020
PROB40
TEMPO 2017/2021 04008G18KT FEW005 BKN010



MET'MAP, la Météo Aéronautique d'un coup d'oeil ! - Copyright ORBIFLY Décembre 2007 - Disclaimer

ORBIFLY MET'MAP TEAM :

Programmation & Développement : Alexandra Zaïnal
Conception & Développement : Baudouin d'Aumeries
Co-Programmation & Développement : Marc-Olivier Méhu
Soutien technique & logistique : Manuel Goepfert

Contact : metmap@orbifly.com




SOURCES & CREDITS :

   NOAA